createdAt,value
2019-05-26T00:00:58.112Z,1.10
2019-05-26T00:03:25.253Z,1.20
2019-05-26T00:05:52.050Z,1.30
2019-05-26T00:08:18.849Z,1.20
2019-05-26T00:10:45.801Z,1.30
2019-05-26T00:13:12.583Z,1.10
2019-05-26T00:15:39.450Z,1.20
2019-05-26T00:18:06.305Z,1.25
2019-05-26T00:20:33.117Z,1.25
2019-05-26T00:22:59.908Z,1.40
2019-05-26T00:25:26.749Z,1.72
2019-05-26T00:27:53.543Z,1.20
2019-05-26T00:30:20.665Z,1.27
2019-05-26T00:32:47.677Z,1.40
2019-05-26T00:35:14.958Z,1.75
2019-05-26T00:37:50.412Z,1.52
2019-05-26T00:40:11.535Z,1.10
2019-05-26T00:42:38.338Z,1.55
2019-05-26T00:45:06.932Z,1.52
2019-05-26T00:47:33.773Z,1.40
2019-05-26T00:50:00.658Z,1.62
2019-05-26T00:52:27.733Z,1.20
2019-05-26T00:54:54.604Z,1.40
2019-05-26T00:57:21.424Z,1.32
2019-05-26T00:59:48.239Z,1.40
2019-05-26T01:02:15.442Z,1.15
2019-05-26T01:04:42.240Z,1.27
2019-05-26T01:07:09.195Z,1.30
2019-05-26T01:09:36.031Z,1.15
2019-05-26T01:12:03.406Z,1.50
2019-05-26T01:14:30.195Z,1.60
2019-05-26T01:16:57.105Z,1.40
2019-05-26T01:19:23.918Z,1.75
2019-05-26T01:21:50.969Z,1.50
2019-05-26T01:24:18.242Z,1.50
2019-05-26T01:26:45.039Z,1.95
2019-05-26T01:29:11.833Z,1.60
2019-05-26T01:31:38.647Z,1.45
2019-05-26T01:34:05.747Z,1.57
2019-05-26T01:36:33.634Z,1.20
2019-05-26T01:39:01.144Z,1.57
2019-05-26T01:41:28.054Z,1.37
2019-05-26T01:43:54.875Z,1.57
2019-05-26T01:46:21.828Z,1.32
2019-05-26T01:48:48.878Z,1.90
2019-05-26T01:51:15.760Z,1.95
2019-05-26T01:53:42.779Z,1.50
2019-05-26T01:56:09.707Z,1.80
2019-05-26T01:58:36.520Z,1.65
2019-05-26T02:01:03.914Z,1.45
2019-05-26T02:03:30.895Z,1.77
2019-05-26T02:05:57.976Z,1.70
2019-05-26T02:08:38.380Z,1.85
2019-05-26T02:10:53.762Z,1.70
2019-05-26T02:13:20.673Z,1.70
2019-05-26T02:15:48.254Z,1.40
2019-05-26T02:18:15.262Z,1.50
2019-05-26T02:20:42.156Z,1.82
2019-05-26T02:23:09.262Z,1.80
2019-05-26T02:25:36.089Z,1.85
2019-05-26T02:28:02.902Z,1.85
2019-05-26T02:30:30.005Z,1.90
2019-05-26T02:32:57.069Z,1.77
2019-05-26T02:35:24.585Z,1.80
2019-05-26T02:37:51.605Z,1.90
2019-05-26T02:40:21.118Z,1.90
2019-05-26T02:42:48.491Z,1.62
2019-05-26T02:45:17.497Z,2.45
2019-05-26T02:47:45.957Z,1.45
2019-05-26T02:50:14.247Z,1.90
2019-05-26T02:52:41.218Z,1.47
2019-05-26T02:55:09.013Z,1.87
2019-05-26T02:57:35.817Z,1.55
2019-05-26T03:00:11.531Z,1.85
2019-05-26T03:02:39.161Z,1.90
2019-05-26T03:05:10.561Z,1.60
2019-05-26T03:07:42.306Z,1.70
2019-05-26T03:10:09.904Z,1.85
2019-05-26T03:12:40.985Z,1.72
2019-05-26T03:15:09.447Z,1.92
2019-05-26T03:17:39.922Z,2.00
2019-05-26T03:20:07.432Z,1.57
2019-05-26T03:22:39.510Z,1.40
2019-05-26T03:25:07.166Z,1.52
2019-05-26T03:27:34.200Z,1.30
2019-05-26T03:30:01.218Z,1.30
2019-05-26T03:32:28.410Z,1.20
2019-05-26T03:34:55.234Z,1.50
2019-05-26T03:37:22.585Z,1.45
2019-05-26T03:39:49.814Z,1.32
2019-05-26T03:42:16.663Z,1.40
2019-05-26T03:44:43.546Z,1.15
2019-05-26T03:47:10.365Z,1.60
2019-05-26T03:49:37.172Z,1.60
2019-05-26T03:52:03.990Z,1.60
2019-05-26T03:54:30.895Z,1.40
2019-05-26T03:56:57.858Z,1.55
2019-05-26T03:59:24.673Z,1.75
2019-05-26T04:01:56.330Z,1.22
2019-05-26T04:04:20.704Z,1.75
2019-05-26T04:06:47.589Z,1.22
2019-05-26T04:09:14.372Z,1.22
2019-05-26T04:11:41.279Z,1.30
2019-05-26T04:14:08.096Z,1.10
2019-05-26T04:16:34.891Z,1.30
2019-05-26T04:19:02.013Z,1.60
2019-05-26T04:21:28.815Z,1.75
2019-05-26T04:23:55.807Z,1.90
2019-05-26T04:26:22.793Z,1.90
2019-05-26T04:28:49.761Z,1.52
2019-05-26T04:31:16.529Z,1.80
2019-05-26T04:33:43.323Z,1.98
2019-05-26T04:36:10.121Z,2.08
2019-05-26T04:38:36.926Z,1.65
2019-05-26T04:41:03.889Z,1.70
2019-05-26T04:43:30.740Z,1.20
2019-05-26T04:45:57.624Z,1.10
2019-05-26T04:48:24.422Z,1.40
2019-05-26T04:50:51.292Z,1.12
2019-05-26T04:53:18.183Z,1.10
2019-05-26T04:55:44.982Z,1.10
2019-05-26T04:58:11.798Z,1.00
2019-05-26T05:00:38.703Z,1.02
2019-05-26T05:03:05.487Z,1.02
2019-05-26T05:05:32.388Z,1.30
2019-05-26T05:07:59.194Z,1.10
2019-05-26T05:10:41.242Z,1.20
2019-05-26T05:12:54.828Z,1.00
2019-05-26T05:15:21.628Z,1.50
2019-05-26T05:17:48.440Z,1.20
2019-05-26T05:20:15.564Z,1.32
2019-05-26T05:22:42.425Z,1.70
2019-05-26T05:25:14.613Z,1.30
2019-05-26T05:27:38.078Z,1.20
2019-05-26T05:30:07.839Z,1.25
2019-05-26T05:32:34.630Z,1.05
2019-05-26T05:35:01.427Z,1.05
2019-05-26T05:37:28.360Z,0.82
2019-05-26T05:39:55.147Z,0.80
2019-05-26T05:42:21.961Z,0.90
2019-05-26T05:44:48.777Z,1.15
2019-05-26T05:47:15.557Z,1.55
2019-05-26T05:49:42.410Z,1.80
2019-05-26T05:52:09.213Z,1.92
2019-05-26T05:54:35.998Z,2.20
2019-05-26T05:57:03.351Z,1.67
2019-05-26T05:59:30.147Z,1.65
2019-05-26T06:01:56.924Z,1.57
2019-05-26T06:04:23.769Z,1.50
2019-05-26T06:06:50.549Z,1.45
2019-05-26T06:09:17.336Z,1.47
2019-05-26T06:11:44.180Z,1.10
2019-05-26T06:14:10.960Z,1.12
2019-05-26T06:16:37.793Z,1.22
2019-05-26T06:19:04.572Z,1.10
2019-05-26T06:21:31.361Z,1.30
2019-05-26T06:23:58.188Z,1.40
2019-05-26T06:26:25.267Z,1.50
2019-05-26T06:28:52.697Z,1.55
2019-05-26T06:31:19.757Z,1.45
2019-05-26T06:33:46.569Z,1.60
2019-05-26T06:36:13.996Z,1.70
2019-05-26T06:38:40.830Z,1.52
2019-05-26T06:41:07.656Z,1.55
2019-05-26T06:43:34.445Z,1.80
2019-05-26T06:46:01.219Z,1.67
2019-05-26T06:48:28.508Z,1.40
2019-05-26T06:50:55.390Z,1.52
2019-05-26T06:53:22.176Z,1.42
2019-05-26T06:55:49.513Z,1.50
2019-05-26T06:58:16.314Z,1.37
2019-05-26T07:00:43.209Z,1.50
2019-05-26T07:03:10.087Z,1.40
2019-05-26T07:05:36.877Z,1.50
2019-05-26T07:08:03.807Z,1.40
2019-05-26T07:10:30.853Z,1.52
2019-05-26T07:12:57.699Z,1.40
2019-05-26T07:15:24.498Z,1.55
2019-05-26T07:17:51.330Z,1.30
2019-05-26T07:20:18.124Z,1.57
2019-05-26T07:22:45.641Z,1.30
2019-05-26T07:25:13.183Z,1.30
2019-05-26T07:27:40.040Z,1.22
2019-05-26T07:30:07.958Z,1.47
2019-05-26T07:32:35.010Z,1.20
2019-05-26T07:35:02.985Z,1.30
2019-05-26T07:37:30.003Z,1.42
2019-05-26T07:39:57.130Z,1.52
2019-05-26T07:42:24.046Z,1.60
2019-05-26T07:44:50.885Z,1.50
2019-05-26T07:47:17.724Z,1.75
2019-05-26T07:49:44.739Z,1.22
2019-05-26T07:52:11.544Z,1.35
2019-05-26T07:54:38.504Z,1.30
2019-05-26T07:57:05.281Z,1.30
2019-05-26T07:59:32.163Z,1.80
2019-05-26T08:01:59.155Z,1.17
2019-05-26T08:04:25.942Z,1.17
2019-05-26T08:06:52.731Z,1.30
2019-05-26T08:09:19.550Z,1.37
2019-05-26T08:11:46.345Z,1.47
2019-05-26T08:14:13.359Z,1.52
2019-05-26T08:16:40.185Z,1.20
2019-05-26T08:19:06.981Z,1.45
2019-05-26T08:21:33.782Z,2.05
2019-05-26T08:24:00.972Z,1.52
2019-05-26T08:26:27.767Z,1.57
2019-05-26T08:28:54.808Z,1.80
2019-05-26T08:31:22.330Z,1.67
2019-05-26T08:33:49.139Z,2.60
2019-05-26T08:36:15.910Z,2.02
2019-05-26T08:38:42.751Z,1.77
2019-05-26T08:41:09.684Z,1.70
2019-05-26T08:43:36.463Z,1.70
2019-05-26T08:46:03.261Z,2.00
2019-05-26T08:48:30.078Z,1.45
2019-05-26T08:50:56.871Z,1.75
2019-05-26T08:53:23.749Z,1.65
2019-05-26T08:55:50.555Z,1.70
2019-05-26T08:58:17.339Z,3.27
2019-05-26T09:00:44.190Z,1.90
2019-05-26T09:03:11.019Z,2.08
2019-05-26T09:05:37.869Z,2.40
2019-05-26T09:08:07.965Z,2.15
2019-05-26T09:10:33.481Z,2.10
2019-05-26T09:13:01.653Z,1.72
2019-05-26T09:15:29.076Z,1.85
2019-05-26T09:17:55.984Z,1.80
2019-05-26T09:20:23.387Z,1.82
2019-05-26T09:22:50.462Z,1.95
2019-05-26T09:25:17.589Z,1.75
2019-05-26T09:27:44.522Z,1.80
2019-05-26T09:30:12.410Z,1.98
2019-05-26T09:32:39.468Z,1.70
2019-05-26T09:35:07.425Z,1.95
2019-05-26T09:37:34.553Z,1.62
2019-05-26T09:40:01.625Z,2.02
2019-05-26T09:42:28.551Z,1.72
2019-05-26T09:44:55.527Z,1.80
2019-05-26T09:47:22.544Z,1.50
2019-05-26T09:49:49.724Z,1.50
2019-05-26T09:52:16.772Z,1.40
2019-05-26T09:54:43.983Z,1.55
2019-05-26T09:57:10.822Z,1.30
2019-05-26T09:59:37.816Z,1.20
2019-05-26T10:02:05.557Z,1.27
2019-05-26T10:04:32.600Z,1.40
2019-05-26T10:07:00.109Z,1.30
2019-05-26T10:09:26.992Z,1.30
2019-05-26T10:11:53.808Z,1.32
2019-05-26T10:14:21.072Z,1.00
2019-05-26T10:16:48.127Z,1.40
2019-05-26T10:19:15.010Z,1.00
2019-05-26T10:21:42.150Z,1.00
2019-05-26T10:24:09.724Z,1.57
2019-05-26T10:26:37.007Z,1.02
2019-05-26T10:29:03.906Z,0.80
2019-05-26T10:31:30.926Z,2.22
2019-05-26T11:45:23.170Z,1.25
2019-05-26T11:47:49.973Z,1.40
2019-05-26T11:50:18.085Z,1.65
2019-05-26T11:52:45.390Z,1.10
2019-05-26T11:55:12.975Z,1.05
2019-05-26T11:57:39.770Z,1.10
2019-05-26T12:00:11.595Z,1.00
2019-05-26T12:02:38.500Z,1.02
2019-05-26T12:05:06.863Z,1.32
2019-05-26T12:07:33.741Z,1.10
2019-05-26T12:10:00.548Z,0.75
2019-05-26T12:12:27.333Z,1.00
2019-05-26T12:14:54.175Z,1.17
2019-05-26T12:17:21.179Z,1.35
2019-05-26T12:19:47.957Z,0.98
2019-05-26T12:22:14.904Z,1.00
2019-05-26T12:24:41.928Z,1.10
2019-05-26T12:27:08.740Z,1.00
2019-05-26T12:29:35.585Z,1.17
2019-05-26T12:32:02.988Z,1.17
2019-05-26T12:34:29.789Z,1.00
2019-05-26T12:36:56.598Z,1.00
2019-05-26T12:39:23.395Z,0.80
2019-05-26T12:41:50.177Z,1.00
2019-05-26T12:44:17.204Z,1.12
2019-05-26T12:46:44.304Z,1.00
2019-05-26T12:49:11.107Z,1.15
2019-05-26T12:51:37.992Z,0.70
2019-05-26T12:54:04.793Z,0.95
2019-05-26T12:56:31.697Z,0.90
2019-05-26T12:58:58.513Z,0.80
2019-05-26T13:01:25.296Z,0.65
2019-05-26T13:03:52.113Z,0.82
2019-05-26T13:06:18.954Z,0.90
2019-05-26T13:08:45.772Z,0.78
2019-05-26T13:11:12.878Z,0.78
2019-05-26T13:13:40.176Z,0.78
2019-05-26T13:16:07.304Z,1.47
2019-05-26T13:18:34.092Z,1.02
2019-05-26T13:21:00.982Z,0.42
2019-05-26T13:23:27.840Z,0.68
2019-05-26T13:25:54.631Z,0.50
2019-05-26T13:28:21.569Z,0.50
2019-05-26T13:30:48.397Z,0.45
2019-05-26T13:33:15.394Z,0.20
2019-05-26T13:35:42.181Z,0.60
2019-05-26T13:38:09.020Z,0.60
2019-05-26T13:40:35.851Z,0.47
2019-05-26T13:43:02.941Z,0.40
2019-05-26T13:45:29.985Z,0.50
2019-05-26T13:47:57.385Z,0.50
2019-05-26T13:50:24.967Z,0.42
2019-05-26T13:52:51.873Z,0.50
2019-05-26T13:55:19.272Z,0.30
2019-05-26T13:57:49.210Z,0.40
2019-05-26T14:00:16.293Z,0.30
2019-05-26T14:02:43.245Z,0.40
2019-05-26T14:05:10.652Z,0.33
2019-05-26T14:07:37.454Z,1.82
2019-05-26T14:10:05.547Z,0.50
2019-05-26T14:12:32.400Z,0.30
2019-05-26T14:14:59.446Z,0.40
2019-05-26T14:17:28.630Z,0.28
2019-05-26T14:19:58.853Z,0.47
2019-05-26T14:22:25.856Z,0.30
2019-05-26T14:24:54.169Z,0.42
2019-05-26T14:27:21.747Z,0.20
2019-05-26T14:29:48.541Z,0.30
2019-05-26T14:32:15.333Z,0.68
2019-05-26T14:34:42.259Z,0.50
2019-05-26T14:37:09.045Z,1.25
2019-05-26T14:39:36.028Z,0.40
2019-05-26T14:42:03.481Z,0.20
2019-05-26T14:44:31.024Z,0.23
2019-05-26T14:46:57.947Z,0.30
2019-05-26T14:49:24.783Z,0.28
2019-05-26T14:51:51.623Z,0.40
2019-05-26T14:54:18.398Z,0.30
2019-05-26T14:56:45.281Z,0.20
2019-05-26T14:59:12.088Z,0.30
2019-05-26T15:01:38.894Z,0.40
2019-05-26T15:04:05.936Z,0.30
2019-05-26T15:06:32.839Z,0.35
2019-05-26T15:08:59.618Z,0.28
2019-05-26T15:11:26.469Z,0.33
2019-05-26T15:13:53.312Z,0.40
2019-05-26T15:16:20.119Z,0.40
2019-05-26T15:18:47.032Z,0.30
2019-05-26T15:21:13.818Z,0.30
2019-05-26T15:23:40.641Z,1.32
2019-05-26T15:26:07.496Z,0.50
2019-05-26T15:28:34.281Z,0.40
2019-05-26T15:31:01.127Z,0.47
2019-05-26T15:33:28.319Z,0.55
2019-05-26T15:35:55.099Z,0.50
2019-05-26T15:38:21.931Z,0.25
2019-05-26T15:40:48.734Z,0.50
2019-05-26T15:43:15.520Z,0.40
2019-05-26T15:45:43.089Z,0.40
2019-05-26T15:48:10.029Z,0.62
2019-05-26T15:50:36.827Z,0.40
2019-05-26T15:53:03.607Z,0.20
2019-05-26T15:55:30.490Z,0.30
2019-05-26T15:57:57.409Z,0.25
2019-05-26T16:00:24.551Z,0.40
2019-05-26T16:02:51.368Z,0.40
2019-05-26T16:05:18.301Z,2.00
2019-05-26T16:07:45.114Z,0.45
2019-05-26T16:10:13.847Z,0.42
2019-05-26T16:12:40.611Z,0.40
2019-05-26T16:15:08.920Z,0.30
2019-05-26T16:17:38.731Z,0.45
2019-05-26T16:20:08.180Z,0.37
2019-05-26T16:22:34.960Z,0.50
2019-05-26T16:25:01.749Z,0.33
2019-05-26T16:27:29.132Z,0.60
2019-05-26T16:29:55.926Z,0.37
2019-05-26T16:32:22.782Z,0.62
2019-05-26T16:34:49.749Z,0.42
2019-05-26T16:37:16.566Z,0.40
2019-05-26T16:39:43.586Z,0.30
2019-05-26T16:42:10.376Z,0.40
2019-05-26T16:44:37.329Z,0.68
2019-05-26T16:47:04.607Z,0.40
2019-05-26T16:49:31.387Z,0.42
2019-05-26T16:51:58.470Z,0.37
2019-05-26T16:54:25.371Z,0.53
2019-05-26T16:56:52.392Z,0.60
2019-05-26T16:59:19.588Z,0.68
2019-05-26T17:01:46.399Z,0.30
2019-05-26T17:04:13.245Z,0.45
2019-05-26T17:06:40.060Z,0.50
2019-05-26T17:09:07.997Z,0.57
2019-05-26T17:11:34.795Z,0.40
2019-05-26T17:14:01.593Z,0.50
2019-05-26T17:16:28.436Z,0.30
2019-05-26T17:18:55.248Z,0.57
2019-05-26T17:21:22.041Z,0.62
2019-05-26T17:23:49.212Z,0.50
2019-05-26T17:26:16.022Z,0.30
2019-05-26T17:28:43.029Z,0.45
2019-05-26T17:31:10.046Z,0.55
2019-05-26T17:33:36.839Z,0.40
2019-05-26T17:36:03.833Z,0.50
2019-05-26T17:38:30.860Z,0.50
2019-05-26T17:40:57.791Z,0.60
2019-05-26T17:43:24.562Z,0.50
2019-05-26T17:45:51.742Z,0.30
2019-05-26T17:48:18.830Z,0.70
2019-05-26T17:50:45.618Z,0.35
2019-05-26T17:53:12.605Z,0.42
2019-05-26T17:55:39.393Z,0.60
2019-05-26T17:58:06.086Z,0.75
2019-05-26T18:00:32.947Z,0.42
2019-05-26T18:02:59.739Z,0.55
2019-05-26T18:05:26.532Z,0.30
2019-05-26T18:07:53.583Z,0.50
2019-05-26T18:10:20.870Z,0.45
2019-05-26T18:12:47.699Z,0.40
2019-05-26T18:15:14.897Z,0.33
2019-05-26T18:17:47.269Z,0.60
2019-05-26T18:20:11.227Z,0.40
2019-05-26T18:22:38.287Z,0.40
2019-05-26T18:25:07.888Z,0.78
2019-05-26T18:27:34.731Z,0.50
2019-05-26T18:30:01.732Z,0.30
2019-05-26T18:32:28.616Z,1.35
2019-05-26T18:34:55.418Z,0.55
2019-05-26T18:37:22.529Z,0.30
2019-05-26T18:39:49.340Z,0.60
2019-05-26T18:42:16.174Z,0.30
2019-05-26T18:44:43.333Z,0.68
2019-05-26T18:47:10.239Z,2.05
2019-05-26T18:49:37.076Z,1.42
2019-05-26T18:52:05.198Z,0.60
2019-05-26T18:54:32.000Z,0.55
2019-05-26T18:56:59.097Z,0.50
2019-05-26T18:59:25.950Z,0.60
2019-05-26T19:01:52.790Z,0.47
2019-05-26T19:04:19.637Z,0.55
2019-05-26T19:06:46.537Z,0.30
2019-05-26T19:09:13.687Z,0.60
2019-05-26T19:11:40.847Z,0.60
2019-05-26T19:14:08.058Z,0.60
2019-05-26T19:16:35.067Z,0.53
2019-05-26T19:19:02.538Z,0.82
2019-05-26T19:21:29.436Z,0.70
2019-05-26T19:23:56.225Z,0.55
2019-05-26T19:26:23.002Z,0.45
2019-05-26T19:28:50.419Z,0.72
2019-05-26T19:31:17.221Z,0.70
2019-05-26T19:33:44.035Z,0.60
2019-05-26T19:36:10.860Z,0.40
2019-05-26T19:38:37.648Z,0.50
2019-05-26T19:41:04.659Z,0.65
2019-05-26T19:43:31.486Z,1.17
2019-05-26T19:45:58.340Z,0.70
2019-05-26T19:48:35.555Z,0.40
2019-05-26T19:50:54.649Z,0.45
2019-05-26T19:53:21.440Z,0.37
2019-05-26T19:55:48.227Z,0.40
2019-05-26T19:58:15.436Z,0.40
2019-05-26T20:00:42.359Z,4.60
2019-05-26T20:03:09.332Z,4.70
2019-05-26T20:05:36.152Z,1.37
2019-05-26T20:08:03.233Z,0.90
2019-05-26T20:10:30.172Z,0.95
2019-05-26T20:12:57.132Z,0.72
2019-05-26T20:15:24.186Z,0.40
2019-05-26T20:17:51.048Z,0.57
2019-05-26T20:20:19.205Z,0.42
2019-05-26T20:22:46.234Z,0.90
2019-05-26T20:25:13.539Z,0.70
2019-05-26T20:27:40.706Z,0.72
2019-05-26T20:30:08.607Z,0.70
2019-05-26T20:32:35.747Z,0.80
2019-05-26T20:35:07.177Z,0.90
2019-05-26T20:37:34.284Z,1.95
2019-05-26T20:40:01.664Z,0.70
2019-05-26T20:42:28.637Z,0.45
2019-05-26T20:44:55.463Z,0.70
2019-05-26T20:47:22.292Z,0.70
2019-05-26T20:49:49.990Z,0.88
2019-05-26T20:52:17.008Z,1.07
2019-05-26T20:54:44.080Z,0.98
2019-05-26T20:57:11.422Z,0.65
2019-05-26T20:59:38.484Z,0.90
2019-05-26T21:02:05.609Z,1.00
2019-05-26T21:04:32.475Z,0.78
2019-05-26T21:06:59.422Z,0.95
2019-05-26T21:09:26.202Z,0.80
2019-05-26T21:11:52.996Z,2.00
2019-05-26T21:14:20.401Z,1.37
2019-05-26T21:16:47.238Z,0.60
2019-05-26T21:19:14.223Z,0.60
2019-05-26T21:21:41.070Z,0.57
2019-05-26T21:24:07.870Z,0.70
2019-05-26T21:26:34.981Z,0.47
2019-05-26T21:29:01.845Z,1.30
2019-05-26T21:31:28.629Z,1.40
2019-05-26T21:33:55.861Z,1.12
2019-05-26T21:36:22.642Z,1.50
2019-05-26T21:38:49.437Z,1.25
2019-05-26T21:41:16.269Z,1.17
2019-05-26T21:43:43.371Z,1.15
2019-05-26T21:46:10.237Z,1.35
2019-05-26T21:48:37.323Z,0.82
2019-05-26T21:51:04.121Z,0.93
2019-05-26T21:53:31.133Z,0.98
2019-05-26T21:55:58.149Z,0.60
2019-05-26T21:58:24.977Z,0.65
2019-05-26T22:00:52.463Z,0.72
2019-05-26T22:03:19.599Z,0.40
2019-05-26T22:05:46.398Z,0.37
2019-05-26T22:08:13.199Z,0.53
2019-05-26T22:10:40.493Z,0.70
2019-05-26T22:13:07.300Z,0.60
2019-05-26T22:15:34.108Z,1.12
2019-05-26T22:18:00.943Z,1.30
2019-05-26T22:20:28.124Z,0.90
2019-05-26T22:22:54.961Z,0.60
2019-05-26T22:25:21.789Z,0.70
2019-05-26T22:27:48.572Z,0.70
2019-05-26T22:30:16.084Z,0.50
2019-05-26T22:32:43.233Z,0.40
2019-05-26T22:35:10.073Z,0.30
2019-05-26T22:37:37.026Z,2.42
2019-05-26T22:40:06.254Z,1.05
2019-05-26T22:42:33.137Z,0.30
2019-05-26T22:44:59.949Z,0.40
2019-05-26T22:47:26.748Z,0.50
2019-05-26T22:49:55.360Z,0.85
2019-05-26T22:52:22.150Z,0.40
2019-05-26T22:54:49.399Z,0.50
2019-05-26T22:57:16.225Z,0.50
2019-05-26T22:59:43.017Z,0.30
2019-05-26T23:02:09.975Z,0.25
2019-05-26T23:04:36.766Z,0.30
2019-05-26T23:07:03.582Z,0.40
2019-05-26T23:09:30.834Z,0.40
2019-05-26T23:11:57.624Z,0.40
2019-05-26T23:14:24.518Z,0.40
2019-05-26T23:16:51.384Z,0.30
2019-05-26T23:19:19.687Z,0.40
2019-05-26T23:21:46.891Z,0.37
2019-05-26T23:24:13.702Z,0.30
2019-05-26T23:26:40.633Z,0.40
2019-05-26T23:29:07.412Z,0.30
2019-05-26T23:31:34.311Z,0.40
2019-05-26T23:34:01.430Z,0.40
2019-05-26T23:36:28.212Z,0.57
2019-05-26T23:38:55.004Z,0.40
2019-05-26T23:41:21.812Z,0.45
2019-05-26T23:43:48.641Z,0.40
2019-05-26T23:46:15.636Z,0.35
2019-05-26T23:48:42.440Z,0.35
2019-05-26T23:51:09.218Z,0.50
2019-05-26T23:53:36.309Z,0.40
2019-05-26T23:56:03.208Z,0.50
2019-05-26T23:58:30.013Z,0.57
